Disclaimer

Please do not use the information listed here in-flight or in-navigation, as they are not provided to us by the airports but are provided by volunteers, so they might be outdated.

Search


Regions


Airport information page

Radio informations:
SAO PAULO TWR - 127.15 MHz
Ground (GND) - 121.9 MHz
Clearance delivery - 120.6 MHz
SAO PAULO APP - 119.8 MHz

Airport informations:
Latitude: 23° 37' 36.09" S
Longitude: 046° 39' 19.35" W
Elevation: 2631 feet - 802 meters
Operating hours: Remarks
Operating agency: Civil government, landing fees and diplomatic clearance may be required
Timezone: UTC-3(-2DT)
Fuel: Unknown fuel type or whether there is any fuel.

Runway information:
17R/35L - 6365 x 147 feet< - >1940 x 45 meters
17L/35R - 4708 x 147 feet< - >1435 x 45 meters

Recent METARs:
SBSP 190200Z AUTO 18003KT 140V230 9999 -RA BKN006 BKN008 OVC042 18/16 Q1018 RERA
SBSP 190225Z AUTO 19004KT 9999 -RA BKN006 BKN008 OVC035 18/16 Q1017
SBSP 190300Z AUTO 19002KT 9999 -RA SCT006 BKN009 18/16 Q1016

Airport on the map: